Adelaide International Airport
YPAD : now visible

Airfield :











YOU CAN JOIN US ON...

 
LOGIN :

Register | Disclaimer

   EN    FR    IT 

 









Legend :    VFR   Marginal VFR   IFR   Intensive IFR   Very Intensive IFR
Visi :
Ceiling :
>= 8 km
>= 3000ft
5 to 8 km
1000 to 3000 ft
1500m to 5 km
500 to 1000 ft
800 to 1500m
200 to 500 ft
< 800m
< 200 ft
Symbols :   Thunderstorms  Fog  Heavy snow  Heavy precipitations  Wind > 20 kt






- Airport Elevation : 20 ft
- IATA code : ADL


YPAD - Adelaide International

CURRENT METAR :
  • 060230Z 24010KT CAVOK 21/11 Q1012

EXPIRED METARs :
  • 060200Z 23009KT CAVOK 22/09 Q1012
  • 060130Z 22007KT CAVOK 21/08 Q1013
  • 060100Z 15004KT 120V190 CAVOK 21/08 Q1013
  • 060030Z 16005KT 090V210 CAVOK 20/08 Q1013
  • 060000Z 16004KT 100V180 CAVOK 20/06 Q1013

TAF TAF YPAD
Valid from the 06 at 03:00 until the 07 at 06:00 UTC


060204Z 0603/0706 23012KT CAVOK
FM060900 12008KT CAVOK
FM061600 VRB03KT CAVOK
FM070400 24008KT CAVOK
YMMM FIR / Oceania



MET'MAP, your aeronautical weather chart ! - Copyright ORBIFLY December 2007 - Disclaimer

ORBIFLY MET'MAP TEAM :

Programming & Development : Alexandra Zaïnal
Concept & original design : Baudouin d'Aumeries
Assistance for programming : Marc-Olivier Méhu
Technical & hardware support : Manuel Goepfert

Contact : metmap@orbifly.com




SOURCES & CREDITS :

   NOAA       Earth
Advisory